createdAt,value
2023-04-28T00:02:24.784Z,21.45
2023-04-28T00:04:52.588Z,20.73
2023-04-28T00:07:20.308Z,19.98
2023-04-28T00:09:47.725Z,19.05
2023-04-28T00:12:15.181Z,19.55
2023-04-28T00:14:43.651Z,18.13
2023-04-28T00:17:13.213Z,20.75
2023-04-28T00:19:40.639Z,22.27
2023-04-28T00:22:08.139Z,20.23
2023-04-28T00:24:36.806Z,20.10
2023-04-28T00:27:04.391Z,19.77
2023-04-28T00:29:37.653Z,20.05
2023-04-28T00:32:11.397Z,21.00
2023-04-28T00:34:38.886Z,19.90
2023-04-28T00:37:06.341Z,25.95
2023-04-28T00:39:33.614Z,26.75
2023-04-28T00:42:02.410Z,20.15
2023-04-28T00:44:31.713Z,20.73
2023-04-28T00:46:59.979Z,19.73
2023-04-28T00:49:27.730Z,21.63
2023-04-28T00:51:56.174Z,20.60
2023-04-28T00:54:23.808Z,20.40
2023-04-28T00:56:51.268Z,20.98
2023-04-28T00:59:18.413Z,54.22
2023-04-28T01:01:47.327Z,36.50
2023-04-28T01:04:16.650Z,23.67
2023-04-28T01:06:45.127Z,24.92
2023-04-28T01:09:12.238Z,23.27
2023-04-28T01:11:39.792Z,23.33
2023-04-28T01:14:07.212Z,22.63
2023-04-28T01:16:35.581Z,24.15
2023-04-28T01:19:03.258Z,23.60
2023-04-28T01:21:33.951Z,22.33
2023-04-28T01:24:01.786Z,22.85
2023-04-28T01:26:29.174Z,23.48
2023-04-28T01:28:57.541Z,24.30
2023-04-28T01:31:25.772Z,25.02
2023-04-28T01:33:53.122Z,25.02
2023-04-28T01:36:22.925Z,23.50
2023-04-28T01:38:51.927Z,23.90
2023-04-28T01:41:19.425Z,25.17
2023-04-28T01:43:46.971Z,23.98
2023-04-28T01:46:14.387Z,24.90
2023-04-28T01:48:41.802Z,28.95
2023-04-28T01:51:09.320Z,26.13
2023-04-28T01:53:37.828Z,25.70
2023-04-28T01:56:05.459Z,26.02
2023-04-28T01:58:34.718Z,24.80
2023-04-28T02:01:03.253Z,24.98
2023-04-28T02:03:30.445Z,25.23
2023-04-28T02:05:58.415Z,26.90
2023-04-28T02:08:27.632Z,29.45
2023-04-28T02:10:57.522Z,27.88
2023-04-28T02:13:25.284Z,26.10
2023-04-28T02:15:52.649Z,26.23
2023-04-28T02:18:26.426Z,25.92
2023-04-28T02:20:53.654Z,26.27
2023-04-28T02:23:21.110Z,26.25
2023-04-28T02:25:48.538Z,28.25
2023-04-28T02:28:17.037Z,28.67
2023-04-28T02:30:44.510Z,29.02
2023-04-28T02:33:12.936Z,25.83
2023-04-28T02:35:40.499Z,27.17
2023-04-28T02:38:09.012Z,25.75
2023-04-28T02:40:36.351Z,27.25
2023-04-28T02:43:03.738Z,26.73
2023-04-28T02:45:31.062Z,26.58
2023-04-28T02:47:58.219Z,26.05
2023-04-28T02:50:25.833Z,26.73
2023-04-28T02:52:53.100Z,26.30
2023-04-28T02:55:24.474Z,25.27
2023-04-28T02:57:53.597Z,25.63
2023-04-28T03:00:21.212Z,27.38
2023-04-28T03:02:48.356Z,28.05
2023-04-28T03:05:16.739Z,29.58
2023-04-28T03:07:46.411Z,31.90
2023-04-28T03:10:14.310Z,34.40
2023-04-28T03:12:41.620Z,33.40
2023-04-28T03:15:09.698Z,35.20
2023-04-28T03:17:42.084Z,37.50
2023-04-28T03:20:11.157Z,40.15
2023-04-28T03:22:38.511Z,38.65
2023-04-28T03:25:06.483Z,39.88
2023-04-28T03:27:34.917Z,41.38
2023-04-28T03:30:03.507Z,40.63
2023-04-28T03:32:31.157Z,40.42
2023-04-28T03:34:59.798Z,39.75
2023-04-28T03:37:28.106Z,38.60
2023-04-28T03:39:55.781Z,39.28
2023-04-28T03:42:24.329Z,40.20
2023-04-28T03:44:51.767Z,38.90
2023-04-28T03:47:19.316Z,38.83
2023-04-28T03:49:46.870Z,38.22
2023-04-28T03:52:16.440Z,38.92
2023-04-28T03:54:49.737Z,39.42
2023-04-28T03:57:17.273Z,39.50
2023-04-28T03:59:44.768Z,39.00
2023-04-28T04:02:12.124Z,39.42
2023-04-28T04:04:39.874Z,39.65
2023-04-28T04:07:07.084Z,38.28
2023-04-28T04:09:35.605Z,39.17
2023-04-28T04:12:02.933Z,39.35
2023-04-28T04:14:30.458Z,38.55
2023-04-28T04:16:58.011Z,39.28
2023-04-28T04:19:28.368Z,39.53
2023-04-28T04:21:56.144Z,39.50
2023-04-28T04:24:23.688Z,41.92
2023-04-28T04:26:51.821Z,40.30
2023-04-28T04:29:19.360Z,41.35
2023-04-28T04:31:46.828Z,41.20
2023-04-28T04:34:14.414Z,42.10
2023-04-28T04:36:42.173Z,42.42
2023-04-28T04:39:09.908Z,42.45
2023-04-28T04:41:38.088Z,42.67
2023-04-28T04:44:06.308Z,42.70
2023-04-28T04:46:33.820Z,43.22
2023-04-28T04:49:03.666Z,43.53
2023-04-28T04:51:31.033Z,43.70
2023-04-28T04:53:59.507Z,42.33
2023-04-28T04:56:26.995Z,42.35
2023-04-28T04:58:54.543Z,42.47
2023-04-28T05:01:21.921Z,41.55
2023-04-28T05:03:55.849Z,42.00
2023-04-28T05:06:23.580Z,40.70
2023-04-28T05:08:51.075Z,41.08
2023-04-28T05:11:19.275Z,39.95
2023-04-28T05:13:46.969Z,39.92
2023-04-28T05:16:20.556Z,37.78
2023-04-28T05:18:48.052Z,37.47
2023-04-28T05:21:15.349Z,40.65
2023-04-28T05:23:43.722Z,39.15
2023-04-28T05:26:11.440Z,38.45
2023-04-28T05:28:41.431Z,39.30
2023-04-28T05:31:09.833Z,37.75
2023-04-28T05:33:37.312Z,37.97
2023-04-28T05:36:04.946Z,38.00
2023-04-28T05:38:34.144Z,37.05
2023-04-28T05:41:02.546Z,37.22
2023-04-28T05:43:30.184Z,36.50
2023-04-28T05:45:57.731Z,35.85
2023-04-28T05:48:27.427Z,36.80
2023-04-28T05:50:56.731Z,35.17
2023-04-28T05:53:24.106Z,35.85
2023-04-28T05:55:52.181Z,34.78
2023-04-28T05:58:21.582Z,34.60
2023-04-28T06:00:49.143Z,34.72
2023-04-28T06:03:19.240Z,34.65
2023-04-28T06:05:54.364Z,34.53
2023-04-28T06:08:21.727Z,35.10
2023-04-28T06:10:50.138Z,33.38
2023-04-28T06:13:17.493Z,33.13
2023-04-28T06:15:47.190Z,33.17
2023-04-28T06:18:20.735Z,32.53
2023-04-28T06:20:48.111Z,30.38
2023-04-28T06:23:15.556Z,31.60
2023-04-28T06:25:43.023Z,29.63
2023-04-28T06:28:10.512Z,30.38
2023-04-28T06:30:43.626Z,29.98
2023-04-28T06:33:11.382Z,28.35
2023-04-28T06:35:40.024Z,27.98
2023-04-28T06:38:08.025Z,28.50
2023-04-28T06:40:35.509Z,27.83
2023-04-28T06:43:04.388Z,25.67
2023-04-28T06:45:33.040Z,25.67
2023-04-28T06:48:00.556Z,25.25
2023-04-28T06:50:27.990Z,25.08
2023-04-28T06:52:55.377Z,26.45
2023-04-28T06:55:22.723Z,26.90
2023-04-28T06:57:53.311Z,25.95
2023-04-28T07:00:21.342Z,25.60
2023-04-28T07:02:48.684Z,24.48
2023-04-28T07:05:16.760Z,24.33
2023-04-28T07:07:44.228Z,23.60
2023-04-28T07:10:11.992Z,22.15
2023-04-28T07:12:39.619Z,20.15
2023-04-28T07:15:08.471Z,20.65
2023-04-28T07:17:38.902Z,19.77
2023-04-28T07:20:07.460Z,19.33
2023-04-28T07:22:35.064Z,19.75
2023-04-28T07:25:02.708Z,18.25
2023-04-28T07:27:29.940Z,18.80
2023-04-28T07:29:57.347Z,16.70
2023-04-28T07:32:25.013Z,17.23
2023-04-28T07:34:52.384Z,15.50
2023-04-28T07:37:20.831Z,15.80
2023-04-28T07:39:48.336Z,14.77
2023-04-28T07:42:15.703Z,14.13
2023-04-28T07:44:42.795Z,12.98
2023-04-28T07:47:10.146Z,13.07
2023-04-28T07:49:37.557Z,12.45
2023-04-28T07:52:05.302Z,12.52
2023-04-28T07:54:32.805Z,12.05
2023-04-28T07:57:01.112Z,11.18
2023-04-28T07:59:28.484Z,11.82
2023-04-28T08:01:56.038Z,10.52
2023-04-28T08:04:23.772Z,9.48
2023-04-28T08:06:51.369Z,10.63
2023-04-28T08:09:30.539Z,10.65
2023-04-28T08:11:59.306Z,9.52
2023-04-28T08:14:26.518Z,9.35
2023-04-28T08:16:54.110Z,9.35
2023-04-28T08:19:22.031Z,8.20
2023-04-28T08:21:49.353Z,7.75
2023-04-28T08:24:23.976Z,7.00
2023-04-28T08:26:51.417Z,5.88
2023-04-28T08:29:18.942Z,6.20
2023-04-28T08:31:46.661Z,6.40
2023-04-28T08:34:16.670Z,6.68
2023-04-28T08:36:45.363Z,6.60
2023-04-28T08:39:13.667Z,6.22
2023-04-28T08:41:41.973Z,9.35
2023-04-28T08:44:10.490Z,15.43
2023-04-28T08:46:45.348Z,12.63
2023-04-28T08:49:19.263Z,6.75
2023-04-28T08:51:51.500Z,6.45
2023-04-28T08:54:26.649Z,6.72
2023-04-28T08:56:56.252Z,5.60
2023-04-28T08:59:24.386Z,6.53
2023-04-28T09:01:53.927Z,6.47
2023-04-28T09:04:22.445Z,6.30
2023-04-28T09:06:50.099Z,6.55
2023-04-28T09:09:34.220Z,6.60
2023-04-28T09:12:05.316Z,6.93
2023-04-28T09:14:36.609Z,7.07
2023-04-28T09:17:13.955Z,6.57
2023-04-28T09:19:45.261Z,6.47
2023-04-28T09:24:47.309Z,6.20
2023-04-28T09:27:15.816Z,6.15
2023-04-28T09:29:54.780Z,7.13
2023-04-28T09:32:24.799Z,6.93
2023-04-28T09:34:54.833Z,7.47
2023-04-28T09:37:25.403Z,6.72
2023-04-28T09:39:55.132Z,6.88
2023-04-28T09:42:41.822Z,6.10
2023-04-28T09:45:13.982Z,6.32
2023-04-28T09:47:44.605Z,6.57
2023-04-28T09:50:15.470Z,6.70
2023-04-28T09:52:46.265Z,6.82
2023-04-28T09:55:13.759Z,5.55
2023-04-28T09:57:45.749Z,6.10
2023-04-28T10:00:15.327Z,6.00
2023-04-28T10:02:44.362Z,5.90
2023-04-28T10:05:18.141Z,5.65
2023-04-28T10:07:46.427Z,5.00
2023-04-28T10:10:15.127Z,5.25
2023-04-28T10:12:42.744Z,6.00
2023-04-28T10:15:10.880Z,4.85
2023-04-28T10:17:39.505Z,5.13
2023-04-28T10:20:09.074Z,4.90
2023-04-28T10:22:54.912Z,4.95
2023-04-28T10:25:35.701Z,4.25
2023-04-28T10:28:09.083Z,4.72
2023-04-28T10:30:38.281Z,4.10
2023-04-28T10:33:15.771Z,3.63
2023-04-28T10:35:48.260Z,4.32
2023-04-28T10:38:24.575Z,3.83
2023-04-28T10:40:54.259Z,4.50
2023-04-28T10:43:33.600Z,4.40
2023-04-28T10:46:06.749Z,4.28
2023-04-28T10:48:49.582Z,4.32
2023-04-28T10:51:19.269Z,4.70
2023-04-28T10:53:50.828Z,4.40
2023-04-28T10:56:27.226Z,4.70
2023-04-28T10:58:58.029Z,3.92
2023-04-28T11:01:27.156Z,4.05
2023-04-28T11:04:07.993Z,3.65
2023-04-28T11:06:47.776Z,3.10
2023-04-28T11:09:15.462Z,2.88
2023-04-28T11:11:58.396Z,4.30
2023-04-28T11:14:26.772Z,3.67
2023-04-28T11:17:00.222Z,4.20
2023-04-28T11:19:30.008Z,3.63
2023-04-28T11:21:59.101Z,3.33
2023-04-28T11:24:29.460Z,3.70
2023-04-28T11:26:58.143Z,3.25
2023-04-28T11:29:39.668Z,3.33
2023-04-28T11:32:10.374Z,3.08
2023-04-28T11:34:38.478Z,3.22
2023-04-28T11:37:09.631Z,2.92
2023-04-28T11:39:37.549Z,3.17
2023-04-28T11:42:12.182Z,2.95
2023-04-28T11:44:39.683Z,3.03
2023-04-28T11:47:07.846Z,2.90
2023-04-28T11:49:45.659Z,3.92
2023-04-28T11:52:14.136Z,2.97
2023-04-28T11:54:44.422Z,3.03
2023-04-28T11:57:25.734Z,2.97
2023-04-28T11:59:53.077Z,2.88
2023-04-28T12:02:30.057Z,3.10
2023-04-28T12:05:05.790Z,3.58
2023-04-28T12:07:44.678Z,3.97
2023-04-28T12:10:17.390Z,3.10
2023-04-28T12:12:52.075Z,3.10
2023-04-28T12:15:22.450Z,2.95
2023-04-28T12:17:56.462Z,2.90
2023-04-28T12:20:39.107Z,2.80
2023-04-28T12:23:08.849Z,10.10
2023-04-28T12:25:48.300Z,3.17
2023-04-28T12:28:16.928Z,2.88
2023-04-28T12:30:44.400Z,3.85
2023-04-28T12:33:29.358Z,3.20
2023-04-28T12:35:59.279Z,3.00
2023-04-28T12:38:28.681Z,3.33
2023-04-28T12:40:57.010Z,3.10
2023-04-28T12:43:24.553Z,2.90
2023-04-28T12:45:53.837Z,3.10
2023-04-28T12:48:22.760Z,3.28
2023-04-28T12:50:56.415Z,3.20
2023-04-28T12:53:24.678Z,3.28
2023-04-28T12:55:52.604Z,3.35
2023-04-28T12:58:20.136Z,3.65
2023-04-28T13:00:48.836Z,2.95
2023-04-28T13:03:16.186Z,3.60
2023-04-28T13:05:44.728Z,2.95
2023-04-28T13:08:12.759Z,3.13
2023-04-28T13:10:41.549Z,3.60
2023-04-28T13:13:08.989Z,3.70
2023-04-28T13:15:38.767Z,3.60
2023-04-28T13:18:06.715Z,3.30
2023-04-28T13:20:34.905Z,3.83
2023-04-28T13:23:02.431Z,3.13
2023-04-28T13:25:31.421Z,3.80
2023-04-28T13:27:58.864Z,4.05
2023-04-28T13:30:27.137Z,3.20
2023-04-28T13:32:57.673Z,3.88
2023-04-28T13:35:25.127Z,3.60
2023-04-28T13:37:56.468Z,3.97
2023-04-28T13:40:24.981Z,3.92
2023-04-28T13:42:52.405Z,3.70
2023-04-28T13:45:21.309Z,5.90
2023-04-28T13:47:51.372Z,3.30
2023-04-28T13:50:19.076Z,3.78
2023-04-28T13:52:46.466Z,3.47
2023-04-28T13:55:16.225Z,3.38
2023-04-28T13:57:44.884Z,3.08
2023-04-28T14:00:13.992Z,3.30
2023-04-28T14:02:41.721Z,3.25
2023-04-28T14:05:09.661Z,3.70
2023-04-28T14:07:37.385Z,3.72
2023-04-28T14:10:05.236Z,3.33
2023-04-28T14:12:32.747Z,4.20
2023-04-28T14:15:00.237Z,4.28
2023-04-28T14:17:35.012Z,3.40
2023-04-28T14:20:04.031Z,3.80
2023-04-28T14:22:31.281Z,3.30
2023-04-28T14:25:00.879Z,3.72
2023-04-28T14:27:29.701Z,4.03
2023-04-28T14:29:57.257Z,3.70
2023-04-28T14:32:30.263Z,4.10
2023-04-28T14:34:57.995Z,4.03
2023-04-28T14:37:27.169Z,3.40
2023-04-28T14:39:54.805Z,3.47
2023-04-28T14:42:23.182Z,3.55
2023-04-28T14:44:52.687Z,3.38
2023-04-28T14:47:21.296Z,3.03
2023-04-28T14:49:53.856Z,3.22
2023-04-28T14:52:22.644Z,4.40
2023-04-28T14:54:52.087Z,3.05
2023-04-28T14:57:20.470Z,3.28
2023-04-28T14:59:48.745Z,2.90
2023-04-28T15:02:17.313Z,2.95
2023-04-28T15:04:46.842Z,3.05
2023-04-28T15:07:14.873Z,3.15
2023-04-28T15:09:44.211Z,3.13
2023-04-28T15:12:13.708Z,2.80
2023-04-28T15:14:41.198Z,2.75
2023-04-28T15:17:10.372Z,3.33
2023-04-28T15:19:39.113Z,3.10
2023-04-28T15:22:06.614Z,2.92
2023-04-28T15:24:34.030Z,3.17
2023-04-28T15:27:04.573Z,3.17
2023-04-28T15:29:34.058Z,3.08
2023-04-28T15:32:08.254Z,3.05
2023-04-28T15:34:35.831Z,3.47
2023-04-28T15:37:43.665Z,3.67
2023-04-28T15:40:13.679Z,3.42
2023-04-28T15:42:49.209Z,3.17
2023-04-28T15:45:18.710Z,3.35
2023-04-28T15:47:48.016Z,3.70
2023-04-28T15:50:22.005Z,3.22
2023-04-28T15:52:50.324Z,3.53
2023-04-28T15:55:26.058Z,4.22
2023-04-28T15:57:53.551Z,3.58
2023-04-28T16:00:21.071Z,3.42
2023-04-28T16:02:48.342Z,3.38
2023-04-28T16:05:18.234Z,3.45
2023-04-28T16:07:45.800Z,3.70
2023-04-28T16:10:16.816Z,3.63
2023-04-28T16:12:44.156Z,3.85
2023-04-28T16:15:13.588Z,3.63
2023-04-28T16:17:41.894Z,3.90
2023-04-28T16:20:15.980Z,3.40
2023-04-28T16:22:43.517Z,3.22
2023-04-28T16:25:12.071Z,3.78
2023-04-28T16:27:40.943Z,3.80
2023-04-28T16:30:10.355Z,3.70
2023-04-28T16:32:38.768Z,3.55
2023-04-28T16:35:06.767Z,3.80
2023-04-28T16:37:37.016Z,4.15
2023-04-28T16:40:06.441Z,3.63
2023-04-28T16:42:35.776Z,3.50
2023-04-28T16:45:03.690Z,4.45
2023-04-28T16:47:31.694Z,3.72
2023-04-28T16:49:59.314Z,3.58
2023-04-28T16:52:28.056Z,4.07
2023-04-28T16:54:55.189Z,4.30
2023-04-28T16:57:23.751Z,4.28
2023-04-28T16:59:51.890Z,4.25
2023-04-28T17:02:19.789Z,4.28
2023-04-28T17:04:48.176Z,4.40
2023-04-28T17:07:15.773Z,4.55
2023-04-28T17:09:43.119Z,4.40
2023-04-28T17:12:10.759Z,5.07
2023-04-28T17:14:41.227Z,5.05
2023-04-28T17:17:14.710Z,5.82
2023-04-28T17:19:42.591Z,5.50
2023-04-28T17:22:12.548Z,5.10
2023-04-28T17:24:40.073Z,5.47
2023-04-28T17:27:09.791Z,5.55
2023-04-28T17:29:37.153Z,5.60
2023-04-28T17:32:07.123Z,5.28
2023-04-28T17:34:35.991Z,5.22
2023-04-28T17:37:03.428Z,6.00
2023-04-28T17:39:30.948Z,5.45
2023-04-28T17:41:58.698Z,5.47
2023-04-28T17:44:26.268Z,4.80
2023-04-28T17:46:55.116Z,4.90
2023-04-28T17:49:22.667Z,4.43
2023-04-28T17:51:50.374Z,4.75
2023-04-28T17:54:23.868Z,4.18
2023-04-28T17:56:52.235Z,4.13
2023-04-28T17:59:19.946Z,4.10
2023-04-28T18:01:47.277Z,4.35
2023-04-28T18:04:14.844Z,4.70
2023-04-28T18:06:43.436Z,5.20
2023-04-28T18:09:10.858Z,6.00
2023-04-28T18:11:38.973Z,5.75
2023-04-28T18:14:06.992Z,5.78
2023-04-28T18:16:36.351Z,5.78
2023-04-28T18:19:04.115Z,6.35
2023-04-28T18:21:34.468Z,7.18
2023-04-28T18:24:02.074Z,6.13
2023-04-28T18:26:29.588Z,5.00
2023-04-28T18:28:57.202Z,5.82
2023-04-28T18:31:25.334Z,5.57
2023-04-28T18:33:53.729Z,5.47
2023-04-28T18:36:21.778Z,5.60
2023-04-28T18:38:49.373Z,5.60
2023-04-28T18:41:19.514Z,5.38
2023-04-28T18:43:47.363Z,5.53
2023-04-28T18:46:16.260Z,5.50
2023-04-28T18:48:44.325Z,5.35
2023-04-28T18:51:12.533Z,5.53
2023-04-28T18:53:40.788Z,5.15
2023-04-28T18:56:08.612Z,5.63
2023-04-28T18:58:37.919Z,5.75
2023-04-28T19:01:05.731Z,5.10
2023-04-28T19:03:33.972Z,5.63
2023-04-28T19:06:04.088Z,5.55
2023-04-28T19:08:33.188Z,5.85
2023-04-28T19:11:01.351Z,5.13
2023-04-28T19:13:37.993Z,5.53
2023-04-28T19:16:07.704Z,5.50
2023-04-28T19:18:35.549Z,5.70
2023-04-28T19:21:05.633Z,4.90
2023-04-28T19:23:34.212Z,5.20
2023-04-28T19:26:02.682Z,5.72
2023-04-28T19:28:30.611Z,5.78
2023-04-28T19:30:59.269Z,6.20
2023-04-28T19:33:28.381Z,6.03
2023-04-28T19:36:11.248Z,6.55
2023-04-28T19:38:43.980Z,6.45
2023-04-28T19:41:12.529Z,6.53
2023-04-28T19:43:41.671Z,7.60
2023-04-28T19:46:12.277Z,6.53
2023-04-28T19:48:42.282Z,7.18
2023-04-28T19:51:11.374Z,6.97
2023-04-28T19:53:42.987Z,7.35
2023-04-28T19:56:13.787Z,7.25
2023-04-28T19:58:41.996Z,7.07
2023-04-28T20:01:11.111Z,7.15
2023-04-28T20:03:38.743Z,7.38
2023-04-28T20:06:06.825Z,7.72
2023-04-28T20:08:35.717Z,7.00
2023-04-28T20:11:04.325Z,6.85
2023-04-28T20:13:31.902Z,7.13
2023-04-28T20:16:02.372Z,6.57
2023-04-28T20:18:33.302Z,7.45
2023-04-28T20:21:00.654Z,7.10
2023-04-28T20:23:29.587Z,7.20
2023-04-28T20:25:57.128Z,7.90
2023-04-28T20:28:25.580Z,6.53
2023-04-28T20:30:53.857Z,6.70
2023-04-28T20:33:21.763Z,7.22
2023-04-28T20:35:50.281Z,7.32
2023-04-28T20:38:29.114Z,8.13
2023-04-28T20:40:59.098Z,6.78
2023-04-28T20:43:28.328Z,7.80
2023-04-28T20:45:56.016Z,7.32
2023-04-28T20:48:24.677Z,7.20
2023-04-28T20:50:54.207Z,7.40
2023-04-28T20:53:22.070Z,7.60
2023-04-28T20:55:50.655Z,8.07
2023-04-28T20:58:18.153Z,7.53
2023-04-28T21:00:45.852Z,7.32
2023-04-28T21:03:16.046Z,7.20
2023-04-28T21:05:45.825Z,7.43
2023-04-28T21:08:13.434Z,7.05
2023-04-28T21:10:42.057Z,7.75
2023-04-28T21:13:10.636Z,8.57
2023-04-28T21:15:41.894Z,7.50
2023-04-28T21:18:09.283Z,7.32
2023-04-28T21:20:36.600Z,7.50
2023-04-28T21:23:07.854Z,7.13
2023-04-28T21:25:36.870Z,7.03
2023-04-28T21:28:04.177Z,7.95
2023-04-28T21:30:31.458Z,8.18
2023-04-28T21:32:58.591Z,7.45
2023-04-28T21:35:27.085Z,7.78
2023-04-28T21:37:54.444Z,8.05
2023-04-28T21:40:22.074Z,7.05
2023-04-28T21:42:49.372Z,7.50
2023-04-28T21:45:17.969Z,7.28
2023-04-28T21:47:46.910Z,7.60
2023-04-28T21:50:14.320Z,7.07
2023-04-28T21:52:41.810Z,7.10
2023-04-28T21:55:16.687Z,7.07
2023-04-28T21:57:43.831Z,6.95
2023-04-28T22:00:13.031Z,7.03
2023-04-28T22:02:40.957Z,7.45
2023-04-28T22:05:09.931Z,7.35
2023-04-28T22:07:48.360Z,7.22
2023-04-28T22:10:15.752Z,7.25
2023-04-28T22:12:42.935Z,7.03
2023-04-28T22:15:10.752Z,7.18
2023-04-28T22:17:38.365Z,7.03
2023-04-28T22:20:12.203Z,7.10
2023-04-28T22:22:40.432Z,6.53
2023-04-28T22:25:09.489Z,7.22
2023-04-28T22:27:37.916Z,7.50
2023-04-28T22:30:08.514Z,6.63
2023-04-28T22:32:35.989Z,6.95
2023-04-28T22:35:05.800Z,7.85
2023-04-28T22:37:34.256Z,6.95
2023-04-28T22:40:01.408Z,7.40
2023-04-28T22:42:29.461Z,7.45
2023-04-28T22:44:56.761Z,7.40
2023-04-28T22:47:24.250Z,6.90
2023-04-28T22:49:52.799Z,7.20
2023-04-28T22:52:22.305Z,7.68
2023-04-28T22:54:50.972Z,7.22
2023-04-28T22:57:18.207Z,7.13
2023-04-28T22:59:45.847Z,6.80
2023-04-28T23:02:13.917Z,7.13
2023-04-28T23:04:41.448Z,7.63
2023-04-28T23:07:09.064Z,7.15
2023-04-28T23:09:37.552Z,6.97
2023-04-28T23:12:13.127Z,7.78
2023-04-28T23:14:40.614Z,7.13
2023-04-28T23:17:09.062Z,7.90
2023-04-28T23:19:39.432Z,7.32
2023-04-28T23:22:09.157Z,7.78
2023-04-28T23:24:38.269Z,8.20
2023-04-28T23:27:05.980Z,8.45
2023-04-28T23:29:33.916Z,9.05
2023-04-28T23:32:01.172Z,8.98
2023-04-28T23:34:31.498Z,9.25
2023-04-28T23:36:59.056Z,9.40
2023-04-28T23:39:30.441Z,9.60
2023-04-28T23:41:58.937Z,10.48
2023-04-28T23:44:26.511Z,10.05
2023-04-28T23:46:56.082Z,10.25
2023-04-28T23:49:24.109Z,10.13
2023-04-28T23:51:51.392Z,10.05
2023-04-28T23:54:20.928Z,10.15
2023-04-28T23:56:48.712Z,10.27
2023-04-28T23:59:16.356Z,10.65
